createdAt,value
2023-02-28T04:58:33.535Z,5.06
2023-02-28T05:01:37.273Z,5.06
2023-02-28T05:04:39.398Z,4.81
2023-02-28T05:07:41.895Z,4.71
2023-02-28T05:10:44.042Z,4.84
2023-02-28T05:13:46.651Z,4.64
2023-02-28T05:16:48.720Z,4.60
2023-02-28T05:19:54.587Z,5.02
2023-02-28T05:23:01.223Z,4.95
2023-02-28T05:26:04.034Z,4.80
2023-02-28T05:29:06.582Z,4.62
2023-02-28T05:32:13.107Z,4.68
2023-02-28T05:35:15.332Z,4.68
2023-02-28T05:38:18.845Z,4.78
2023-02-28T05:41:21.579Z,5.08
2023-02-28T05:44:24.533Z,5.11
2023-02-28T05:47:26.665Z,5.50
2023-02-28T05:50:29.058Z,5.13
2023-02-28T05:53:31.999Z,5.02
2023-02-28T05:56:36.331Z,4.98
2023-02-28T05:59:40.797Z,4.45
2023-02-28T06:02:43.192Z,4.32
2023-02-28T06:05:45.699Z,3.96
2023-02-28T06:08:47.918Z,3.66
2023-02-28T06:11:50.513Z,3.72
2023-02-28T06:14:52.579Z,4.03
2023-02-28T06:17:57.432Z,4.22
2023-02-28T06:20:59.535Z,4.51
2023-02-28T06:24:02.709Z,4.67
2023-02-28T06:27:06.049Z,5.27
2023-02-28T06:30:09.181Z,5.19
2023-02-28T06:33:11.296Z,4.92
2023-02-28T06:36:16.834Z,4.51
2023-02-28T06:39:20.295Z,4.37
2023-02-28T06:42:25.743Z,4.60
2023-02-28T06:45:27.848Z,5.27
2023-02-28T06:48:30.271Z,5.86
2023-02-28T06:51:32.421Z,5.90
2023-02-28T06:54:34.776Z,6.18
2023-02-28T06:57:37.997Z,6.08
2023-02-28T07:00:40.349Z,6.22
2023-02-28T07:03:42.432Z,5.83
2023-02-28T07:06:44.782Z,5.51
2023-02-28T07:09:46.883Z,5.41
2023-02-28T07:12:49.559Z,5.67
2023-02-28T07:15:55.665Z,5.40
2023-02-28T07:18:58.149Z,5.49
2023-02-28T07:22:00.715Z,5.35
2023-02-28T07:25:03.262Z,6.07
2023-02-28T07:28:05.498Z,6.10
2023-02-28T07:31:08.877Z,5.77
2023-02-28T07:34:10.981Z,5.32
2023-02-28T07:37:13.532Z,5.43
2023-02-28T07:40:16.183Z,5.16
2023-02-28T07:43:18.693Z,4.93
2023-02-28T07:46:23.182Z,4.66
2023-02-28T07:49:26.800Z,4.48
2023-02-28T07:52:30.871Z,4.38
2023-02-28T07:55:33.936Z,4.85
2023-02-28T07:58:36.116Z,4.54
2023-02-28T08:01:39.883Z,4.55
2023-02-28T08:04:43.589Z,4.69
2023-02-28T08:07:45.993Z,4.75
2023-02-28T08:10:48.792Z,4.60
2023-02-28T08:13:52.370Z,4.57
2023-02-28T08:16:55.920Z,5.10
2023-02-28T08:19:58.583Z,5.46
2023-02-28T08:23:01.233Z,5.44
2023-02-28T08:26:04.558Z,5.78
2023-02-28T08:29:08.008Z,5.48
2023-02-28T08:32:20.536Z,5.03
2023-02-28T08:35:31.186Z,4.86
2023-02-28T08:38:33.507Z,5.23
2023-02-28T08:41:36.060Z,5.75
2023-02-28T08:44:38.611Z,5.49
2023-02-28T08:47:41.705Z,5.93
2023-02-28T08:50:46.433Z,6.39
2023-02-28T08:53:50.794Z,6.42
2023-02-28T08:56:52.904Z,6.34
2023-02-28T08:59:55.413Z,6.73
2023-02-28T09:02:57.492Z,6.56
2023-02-28T09:06:05.472Z,6.95
2023-02-28T09:09:08.535Z,6.81
2023-02-28T09:12:11.028Z,6.90
2023-02-28T09:15:13.163Z,7.30
2023-02-28T09:18:15.766Z,7.27
2023-02-28T09:21:20.270Z,7.13
2023-02-28T09:24:22.675Z,7.26
2023-02-28T09:27:24.795Z,7.26
2023-02-28T09:30:27.930Z,7.16
2023-02-28T09:33:30.045Z,6.95
2023-02-28T09:36:43.827Z,7.17
2023-02-28T09:39:46.711Z,7.30
2023-02-28T09:42:51.761Z,7.45
2023-02-28T09:45:59.684Z,7.38
2023-02-28T09:49:38.605Z,7.93
2023-02-28T09:52:41.857Z,7.34
2023-02-28T09:55:50.487Z,7.49
2023-02-28T09:59:10.986Z,7.01
2023-02-28T10:02:19.777Z,7.40
2023-02-28T10:05:32.817Z,6.98
2023-02-28T10:08:43.857Z,7.22
2023-02-28T10:14:56.182Z,7.19
2023-02-28T10:18:09.109Z,7.49
2023-02-28T10:21:29.847Z,7.60
2023-02-28T10:24:55.440Z,7.81
2023-02-28T10:28:06.719Z,7.38
2023-02-28T10:31:20.801Z,6.96
2023-02-28T10:34:23.383Z,7.32
2023-02-28T10:37:25.918Z,7.62
2023-02-28T10:40:36.433Z,7.25
2023-02-28T10:43:41.796Z,7.36
2023-02-28T10:46:44.385Z,7.46
2023-02-28T10:49:50.022Z,7.80
2023-02-28T10:52:52.348Z,7.81
2023-02-28T10:55:57.981Z,7.61
2023-02-28T10:59:09.404Z,7.85
2023-02-28T11:02:37.724Z,7.83
2023-02-28T11:05:42.097Z,7.27
2023-02-28T11:08:47.676Z,7.30
2023-02-28T11:11:50.361Z,7.38
2023-02-28T11:15:21.929Z,7.51
2023-02-28T11:18:31.779Z,7.89
2023-02-28T11:21:41.403Z,7.77
2023-02-28T11:24:48.448Z,7.93
2023-02-28T11:27:56.591Z,7.87
2023-02-28T11:31:17.202Z,7.99
2023-02-28T11:34:28.441Z,8.28
2023-02-28T11:37:32.688Z,8.10
2023-02-28T11:40:38.145Z,8.26
2023-02-28T11:43:59.513Z,8.33
2023-02-28T11:47:14.277Z,8.56
2023-02-28T11:50:37.798Z,7.88
2023-02-28T11:54:04.678Z,7.73
2023-02-28T11:57:30.245Z,7.27
2023-02-28T12:00:44.944Z,7.33
2023-02-28T12:04:05.701Z,7.89
2023-02-28T12:07:27.368Z,7.96
2023-02-28T12:10:34.786Z,8.06
2023-02-28T12:14:12.756Z,8.32
2023-02-28T12:17:34.403Z,8.72
2023-02-28T12:20:54.991Z,8.47
2023-02-28T12:24:25.267Z,7.84
2023-02-28T12:27:33.298Z,7.64
2023-02-28T12:30:42.565Z,8.41
2023-02-28T12:33:53.997Z,8.32
2023-02-28T12:37:02.118Z,8.23
2023-02-28T12:40:10.770Z,8.07
2023-02-28T12:43:15.831Z,8.31
2023-02-28T12:46:24.027Z,8.51
2023-02-28T12:49:34.846Z,8.62
2023-02-28T12:52:45.249Z,8.08
2023-02-28T12:55:58.977Z,8.40
2023-02-28T12:59:21.708Z,8.36
2023-02-28T13:02:42.288Z,8.64
2023-02-28T13:06:06.206Z,8.41
2023-02-28T13:09:14.989Z,8.32
2023-02-28T13:12:17.628Z,8.70
2023-02-28T13:15:25.240Z,8.56
2023-02-28T13:18:43.627Z,8.46
2023-02-28T13:21:46.212Z,8.73
2023-02-28T13:24:53.153Z,8.38
2023-02-28T13:27:57.889Z,8.62
2023-02-28T13:31:04.694Z,8.81
2023-02-28T13:34:16.835Z,8.40
2023-02-28T13:37:19.881Z,8.40
2023-02-28T13:40:40.324Z,8.72
2023-02-28T13:44:07.207Z,8.61
2023-02-28T13:47:22.845Z,8.68
2023-02-28T13:50:33.748Z,8.89
2023-02-28T13:54:00.115Z,9.12
2023-02-28T13:57:39.617Z,8.94
2023-02-28T14:00:46.742Z,9.09
2023-02-28T14:04:02.290Z,8.97
2023-02-28T14:07:05.230Z,9.03
2023-02-28T14:10:09.854Z,8.85
2023-02-28T14:13:38.845Z,8.64
2023-02-28T14:16:51.061Z,8.86
2023-02-28T14:19:53.818Z,9.24
2023-02-28T14:23:20.530Z,8.97
2023-02-28T14:26:47.407Z,9.26
2023-02-28T14:30:22.387Z,9.32
2023-02-28T14:33:28.096Z,8.82
2023-02-28T14:36:38.977Z,8.54
2023-02-28T14:39:44.668Z,8.69
2023-02-28T14:43:03.597Z,8.85
2023-02-28T14:46:07.519Z,9.05
2023-02-28T14:49:18.503Z,8.79
2023-02-28T14:52:28.078Z,8.39
2023-02-28T14:55:33.291Z,8.42
2023-02-28T14:58:35.603Z,8.68
2023-02-28T15:01:38.111Z,8.64
2023-02-28T15:04:42.808Z,8.50
2023-02-28T15:07:45.894Z,8.62
2023-02-28T15:11:09.655Z,8.81
2023-02-28T15:14:20.842Z,9.09
2023-02-28T15:17:25.359Z,9.01
2023-02-28T15:20:28.185Z,8.85
2023-02-28T15:23:31.276Z,8.97
2023-02-28T15:26:38.881Z,9.10
2023-02-28T15:29:50.214Z,9.12
2023-02-28T15:33:14.178Z,9.17
2023-02-28T15:36:21.948Z,9.22
2023-02-28T15:39:28.302Z,9.26
2023-02-28T15:42:30.881Z,9.27
2023-02-28T15:45:42.318Z,9.10
2023-02-28T15:48:52.001Z,9.13
2023-02-28T15:51:58.834Z,9.08
2023-02-28T15:55:09.086Z,9.09
2023-02-28T15:58:13.951Z,9.16
2023-02-28T16:01:27.238Z,9.14
2023-02-28T16:04:32.510Z,9.18
2023-02-28T16:07:39.622Z,9.16
2023-02-28T16:10:42.442Z,8.96
2023-02-28T16:13:44.631Z,8.85
2023-02-28T16:16:50.224Z,8.85
2023-02-28T16:19:52.899Z,9.00
2023-02-28T16:22:55.414Z,8.88
2023-02-28T16:25:57.611Z,8.90
2023-02-28T16:28:59.992Z,8.94
2023-02-28T16:32:05.936Z,9.04
2023-02-28T16:35:11.378Z,8.87
2023-02-28T16:38:13.451Z,8.57
2023-02-28T16:41:20.243Z,8.54
2023-02-28T16:44:25.531Z,8.55
